createdAt,value
2022-08-03T00:00:26.638Z,14.56
2022-08-03T00:02:54.055Z,14.49
2022-08-03T00:05:21.203Z,14.45
2022-08-03T00:07:48.574Z,14.42
2022-08-03T00:10:16.685Z,14.44
2022-08-03T00:12:43.386Z,14.48
2022-08-03T00:15:15.026Z,14.53
2022-08-03T00:17:51.972Z,14.58
2022-08-03T00:20:21.737Z,14.57
2022-08-03T00:22:49.353Z,14.28
2022-08-03T00:25:18.469Z,14.11
2022-08-03T00:27:45.679Z,14.32
2022-08-03T00:30:16.964Z,14.43
2022-08-03T00:32:45.182Z,14.53
2022-08-03T00:35:26.633Z,14.60
2022-08-03T00:37:59.976Z,14.65
2022-08-03T00:40:27.003Z,14.63
2022-08-03T00:43:02.727Z,14.55
2022-08-03T00:45:32.701Z,14.63
2022-08-03T00:48:00.321Z,14.59
2022-08-03T00:50:29.548Z,14.60
2022-08-03T00:52:58.901Z,14.56
2022-08-03T00:55:25.728Z,14.58
2022-08-03T00:57:52.966Z,14.62
2022-08-03T01:00:22.938Z,14.66
2022-08-03T01:02:49.997Z,14.70
2022-08-03T01:05:16.845Z,14.71
2022-08-03T01:07:55.792Z,14.69
2022-08-03T01:10:44.038Z,14.63
2022-08-03T01:14:01.176Z,14.46
2022-08-03T01:16:35.940Z,14.45
2022-08-03T01:19:26.743Z,14.37
2022-08-03T01:22:14.818Z,14.42
2022-08-03T01:24:56.496Z,14.42
2022-08-03T01:27:31.420Z,14.37
2022-08-03T01:30:05.472Z,14.43
2022-08-03T01:33:03.059Z,14.43
2022-08-03T01:35:43.167Z,14.50
2022-08-03T01:38:15.250Z,14.52
2022-08-03T01:40:44.781Z,14.52
2022-08-03T01:44:26.702Z,14.51
2022-08-03T01:46:06.330Z,14.47
2022-08-03T01:48:35.526Z,14.35
2022-08-03T01:51:02.870Z,14.36
2022-08-03T01:53:33.758Z,14.34
2022-08-03T01:56:02.620Z,14.33
2022-08-03T01:58:31.168Z,14.16
2022-08-03T02:01:01.234Z,14.08
2022-08-03T02:03:30.010Z,14.20
2022-08-03T02:06:32.928Z,14.27
2022-08-03T02:08:48.463Z,14.19
2022-08-03T02:11:16.037Z,14.26
2022-08-03T02:13:44.304Z,14.17
2022-08-03T02:16:16.614Z,14.10
2022-08-03T02:18:43.607Z,14.07
2022-08-03T02:21:12.077Z,14.07
2022-08-03T02:23:58.842Z,14.13
2022-08-03T02:26:29.638Z,14.16
2022-08-03T02:29:02.353Z,14.12
2022-08-03T02:31:33.279Z,14.07
2022-08-03T02:34:03.627Z,13.97
2022-08-03T02:36:35.033Z,13.92
2022-08-03T02:39:03.347Z,14.00
2022-08-03T02:41:39.198Z,13.98
2022-08-03T02:44:09.685Z,14.05
2022-08-03T02:46:39.828Z,14.05
2022-08-03T02:49:41.061Z,13.95
2022-08-03T02:51:56.597Z,13.90
2022-08-03T02:54:26.603Z,13.84
2022-08-03T02:56:56.026Z,13.72
2022-08-03T02:59:23.973Z,13.66
2022-08-03T03:01:52.015Z,13.68
2022-08-03T03:04:19.406Z,13.65
2022-08-03T03:06:50.665Z,13.67
2022-08-03T03:09:19.265Z,13.65
2022-08-03T03:11:46.375Z,13.56
2022-08-03T03:14:15.083Z,13.39
2022-08-03T03:16:44.564Z,13.37
2022-08-03T03:19:19.308Z,13.40
2022-08-03T03:21:47.138Z,13.37
2022-08-03T03:24:14.556Z,13.43
2022-08-03T03:26:42.509Z,13.45
2022-08-03T03:29:09.882Z,13.52
2022-08-03T03:31:37.333Z,13.56
2022-08-03T03:34:05.223Z,13.57
2022-08-03T03:36:33.479Z,13.55
2022-08-03T03:39:00.197Z,13.54
2022-08-03T03:41:43.519Z,13.49
2022-08-03T03:44:10.411Z,13.53
2022-08-03T03:46:38.926Z,13.58
2022-08-03T03:49:09.183Z,13.51
2022-08-03T03:51:36.040Z,13.53
2022-08-03T03:54:07.435Z,13.56
2022-08-03T03:56:34.271Z,13.60
2022-08-03T03:59:01.048Z,13.63
2022-08-03T04:01:27.858Z,13.68
2022-08-03T04:03:55.094Z,13.70
2022-08-03T04:06:40.290Z,13.71
2022-08-03T04:09:29.208Z,13.72
2022-08-03T04:12:01.077Z,13.70
2022-08-03T04:14:35.161Z,13.69
2022-08-03T04:17:09.392Z,13.75
2022-08-03T04:19:47.797Z,13.85
2022-08-03T04:22:18.996Z,13.92
2022-08-03T04:24:53.712Z,14.00
2022-08-03T04:27:27.404Z,14.11
2022-08-03T04:29:56.879Z,14.13
2022-08-03T04:32:28.392Z,14.24
2022-08-03T04:34:55.237Z,14.29
2022-08-03T04:37:46.155Z,14.33
2022-08-03T04:40:22.953Z,14.40
2022-08-03T04:42:51.086Z,14.44
2022-08-03T04:45:19.562Z,14.42
2022-08-03T04:47:47.836Z,14.36
2022-08-03T04:50:20.930Z,14.61
2022-08-03T04:52:48.613Z,14.77
2022-08-03T04:55:32.665Z,14.94
2022-08-03T04:58:00.130Z,15.13
2022-08-03T05:00:27.514Z,16.77
2022-08-03T05:02:55.430Z,19.00
2022-08-03T05:05:22.339Z,20.65
2022-08-03T05:07:52.053Z,20.88
2022-08-03T05:10:20.083Z,21.82
2022-08-03T05:12:52.799Z,22.88
2022-08-03T05:15:19.603Z,24.09
2022-08-03T05:17:46.321Z,25.07
2022-08-03T05:20:13.060Z,25.52
2022-08-03T05:22:39.861Z,26.29
2022-08-03T05:25:06.850Z,25.75
2022-08-03T05:27:33.511Z,26.41
2022-08-03T05:30:30.620Z,25.33
2022-08-03T05:32:50.713Z,23.90
2022-08-03T05:36:01.063Z,23.05
2022-08-03T05:38:04.342Z,23.71
2022-08-03T05:40:32.884Z,25.42
2022-08-03T05:42:59.920Z,27.30
2022-08-03T05:45:29.425Z,28.58
2022-08-03T05:47:56.577Z,29.27
2022-08-03T05:50:24.545Z,29.87
2022-08-03T05:52:51.353Z,30.75
2022-08-03T05:55:18.202Z,31.14
2022-08-03T05:57:47.914Z,31.66
2022-08-03T06:00:19.017Z,31.56
2022-08-03T06:02:45.941Z,31.41
2022-08-03T06:05:12.609Z,31.02
2022-08-03T06:07:42.810Z,31.46
2022-08-03T06:10:37.535Z,29.92
2022-08-03T06:12:58.696Z,30.29
2022-08-03T06:15:25.393Z,31.52
2022-08-03T06:17:52.593Z,32.53
2022-08-03T06:20:20.676Z,32.67
2022-08-03T06:22:50.881Z,31.89
2022-08-03T06:25:21.088Z,33.40
2022-08-03T06:27:48.368Z,33.71
2022-08-03T06:30:19.294Z,34.38
2022-08-03T06:32:52.041Z,34.22
2022-08-03T06:35:22.185Z,33.66
2022-08-03T06:37:51.764Z,31.39
2022-08-03T06:40:29.824Z,28.90
2022-08-03T06:42:59.133Z,28.57
2022-08-03T06:45:26.485Z,28.66
2022-08-03T06:48:06.901Z,28.34
2022-08-03T06:50:34.439Z,28.84
2022-08-03T06:53:01.905Z,30.35
2022-08-03T06:55:28.632Z,31.48
2022-08-03T06:58:00.178Z,31.26
2022-08-03T07:00:31.130Z,31.01
2022-08-03T07:02:58.605Z,30.69
2022-08-03T07:05:25.655Z,30.20
2022-08-03T07:07:56.668Z,29.62
2022-08-03T07:10:27.789Z,29.06
2022-08-03T07:12:56.418Z,28.69
2022-08-03T07:15:53.753Z,28.03
2022-08-03T07:18:10.768Z,27.59
2022-08-03T07:20:37.560Z,25.97
2022-08-03T07:23:04.194Z,26.99
2022-08-03T07:25:30.835Z,25.52
2022-08-03T07:27:57.518Z,26.14
2022-08-03T07:30:25.312Z,25.58
2022-08-03T07:32:51.948Z,24.98
2022-08-03T07:35:24.381Z,23.86
2022-08-03T07:37:54.527Z,23.69
2022-08-03T07:40:22.597Z,23.33
2022-08-03T07:42:53.252Z,23.17
2022-08-03T07:45:23.435Z,23.46
2022-08-03T07:47:53.433Z,23.64
2022-08-03T07:50:22.571Z,24.50
2022-08-03T07:52:50.646Z,25.03
2022-08-03T07:55:25.502Z,25.51
2022-08-03T07:58:24.324Z,25.50
2022-08-03T08:00:53.154Z,26.16
2022-08-03T08:03:25.261Z,26.37
2022-08-03T08:05:54.148Z,27.53
2022-08-03T08:08:21.225Z,27.33
2022-08-03T08:10:57.766Z,26.74
2022-08-03T08:13:25.307Z,27.61
2022-08-03T08:15:52.041Z,26.09
2022-08-03T08:18:18.963Z,26.11
2022-08-03T08:20:45.849Z,25.69
2022-08-03T09:25:57.529Z,23.98
2022-08-03T09:28:58.154Z,24.26
2022-08-03T09:31:39.635Z,23.89
2022-08-03T09:34:16.965Z,23.75
2022-08-03T09:36:48.968Z,24.27
2022-08-03T09:39:41.146Z,24.96
2022-08-03T09:42:10.108Z,24.74
2022-08-03T09:44:42.290Z,25.02
2022-08-03T09:47:10.812Z,25.35
2022-08-03T09:49:38.502Z,24.89
2022-08-03T09:52:31.433Z,24.86
2022-08-03T09:55:02.834Z,24.80
2022-08-03T09:57:32.930Z,24.82
2022-08-03T10:00:11.008Z,24.92
2022-08-03T10:02:39.703Z,24.83
2022-08-03T10:05:08.533Z,24.57
2022-08-03T10:07:46.375Z,24.77
2022-08-03T10:10:30.209Z,24.71
2022-08-03T10:13:00.338Z,24.81
2022-08-03T10:16:22.392Z,24.87
2022-08-03T10:18:14.183Z,24.63
2022-08-03T10:20:45.738Z,24.61
2022-08-03T10:23:15.020Z,24.76
2022-08-03T10:25:43.999Z,24.54
2022-08-03T10:28:15.045Z,24.79
2022-08-03T10:30:45.574Z,25.03
2022-08-03T10:33:49.567Z,25.42
2022-08-03T10:36:08.297Z,25.09
2022-08-03T10:38:43.702Z,25.35
2022-08-03T10:41:11.122Z,25.17
2022-08-03T10:43:58.934Z,25.06
2022-08-03T10:46:27.566Z,24.94
2022-08-03T10:48:56.727Z,24.80
2022-08-03T10:51:24.307Z,24.74
2022-08-03T10:53:54.834Z,24.59
2022-08-03T10:56:54.678Z,24.70
2022-08-03T10:59:46.362Z,24.75
2022-08-03T11:02:14.573Z,24.34
2022-08-03T11:04:42.868Z,24.09
2022-08-03T11:07:23.357Z,23.93
2022-08-03T11:09:52.946Z,23.96
2022-08-03T11:12:21.583Z,23.57
2022-08-03T11:14:58.962Z,23.45
2022-08-03T11:17:25.757Z,23.30
2022-08-03T11:19:57.926Z,23.13
2022-08-03T11:22:25.818Z,23.14
2022-08-03T11:24:54.458Z,22.97
2022-08-03T11:27:32.179Z,22.97
2022-08-03T11:30:03.094Z,23.04
2022-08-03T11:32:46.569Z,23.05
2022-08-03T11:35:33.681Z,22.73
2022-08-03T11:38:03.577Z,22.67
2022-08-03T11:40:47.427Z,22.67
2022-08-03T11:43:26.726Z,22.68
2022-08-03T11:46:02.874Z,22.66
2022-08-03T11:48:43.948Z,22.75
2022-08-03T11:51:25.607Z,22.76
2022-08-03T11:53:57.099Z,22.87
2022-08-03T11:56:24.400Z,22.81
2022-08-03T11:58:58.210Z,22.92
2022-08-03T12:01:41.717Z,22.74
2022-08-03T12:04:08.624Z,22.78
2022-08-03T12:06:54.840Z,22.65
2022-08-03T12:09:22.270Z,22.89
2022-08-03T12:11:50.922Z,22.95
2022-08-03T12:14:49.326Z,22.97
2022-08-03T12:17:15.283Z,23.00
2022-08-03T12:19:43.193Z,23.00
2022-08-03T12:22:09.900Z,23.14
2022-08-03T12:24:46.639Z,23.07
2022-08-03T12:27:23.671Z,22.97
2022-08-03T12:29:58.432Z,22.70
2022-08-03T12:32:27.388Z,22.70
2022-08-03T12:34:55.667Z,22.75
2022-08-03T12:37:23.595Z,22.66
2022-08-03T12:40:02.698Z,22.67
2022-08-03T12:42:35.434Z,22.75
2022-08-03T12:45:25.702Z,23.00
2022-08-03T12:47:52.498Z,23.15
2022-08-03T12:50:34.081Z,23.17
2022-08-03T12:53:04.664Z,23.48
2022-08-03T12:55:56.630Z,23.81
2022-08-03T12:58:36.157Z,23.97
2022-08-03T13:01:09.490Z,23.98
2022-08-03T13:03:50.421Z,23.96
2022-08-03T13:06:22.752Z,23.81
2022-08-03T13:08:53.554Z,24.03
2022-08-03T13:11:23.468Z,24.35
2022-08-03T13:14:10.609Z,24.42
2022-08-03T13:16:43.453Z,24.37
2022-08-03T13:19:15.663Z,24.26
2022-08-03T13:22:01.303Z,24.24
2022-08-03T13:24:31.359Z,24.50
2022-08-03T13:26:58.791Z,24.31
2022-08-03T13:29:25.437Z,24.62
2022-08-03T13:31:52.125Z,24.69
2022-08-03T13:34:22.988Z,24.62
2022-08-03T13:37:09.402Z,25.30
2022-08-03T13:39:57.899Z,25.28
2022-08-03T13:42:23.654Z,25.63
2022-08-03T13:44:51.348Z,26.00
2022-08-03T13:47:18.276Z,26.01
2022-08-03T13:49:59.650Z,25.80
2022-08-03T13:52:33.613Z,25.54
2022-08-03T13:55:01.397Z,25.08
2022-08-03T13:58:06.580Z,25.23
2022-08-03T14:00:27.455Z,25.32
2022-08-03T14:03:13.173Z,25.46
2022-08-03T14:05:43.054Z,25.60
2022-08-03T14:08:10.805Z,25.16
2022-08-03T14:10:40.686Z,25.57
2022-08-03T14:13:08.992Z,25.33
2022-08-03T14:15:37.577Z,25.18
2022-08-03T14:18:06.591Z,25.91
2022-08-03T14:20:47.679Z,26.06
2022-08-03T14:23:16.489Z,26.08
2022-08-03T14:25:52.038Z,26.16
2022-08-03T14:28:25.228Z,25.75
2022-08-03T14:30:53.968Z,25.49
2022-08-03T14:33:21.036Z,26.03
2022-08-03T14:35:48.256Z,25.67
2022-08-03T14:38:15.611Z,25.60
2022-08-03T14:40:42.636Z,25.82
2022-08-03T14:43:09.333Z,25.77
2022-08-03T14:45:36.178Z,25.47
2022-08-03T14:50:33.784Z,25.29
2022-08-03T14:50:52.903Z,25.18
2022-08-03T14:53:20.350Z,25.22
2022-08-03T14:55:50.296Z,25.24
2022-08-03T14:58:20.731Z,25.14
2022-08-03T15:00:47.632Z,25.20
2022-08-03T15:03:16.801Z,25.06
2022-08-03T15:05:44.612Z,24.99
2022-08-03T15:08:11.409Z,24.72
2022-08-03T15:10:44.062Z,24.42
2022-08-03T15:13:12.242Z,24.20
2022-08-03T15:15:39.105Z,24.40
2022-08-03T15:18:05.893Z,24.01
2022-08-03T15:20:43.834Z,24.18
2022-08-03T15:23:12.085Z,24.13
2022-08-03T15:26:03.150Z,24.15
2022-08-03T15:28:25.599Z,24.13
2022-08-03T15:30:53.103Z,24.10
2022-08-03T15:33:20.861Z,24.31
2022-08-03T15:35:47.862Z,24.38
2022-08-03T15:38:15.413Z,24.39
2022-08-03T15:40:42.199Z,24.35
2022-08-03T15:43:09.267Z,24.40
2022-08-03T15:45:36.893Z,24.50
2022-08-03T15:48:05.417Z,24.46
2022-08-03T15:50:32.340Z,24.16
2022-08-03T15:52:59.140Z,24.26
2022-08-03T15:55:25.996Z,24.23
2022-08-03T15:59:09.526Z,24.23
2022-08-03T16:00:40.453Z,24.17
2022-08-03T16:03:07.384Z,24.03
2022-08-03T16:05:34.153Z,23.97
2022-08-03T16:08:03.736Z,23.68
2022-08-03T16:10:32.340Z,23.88
2022-08-03T16:13:00.123Z,23.76
2022-08-03T16:15:27.649Z,23.79
2022-08-03T16:17:54.638Z,23.63
2022-08-03T16:20:31.711Z,23.77
2022-08-03T16:23:10.656Z,23.75
2022-08-03T16:25:42.550Z,23.61
2022-08-03T16:28:15.030Z,23.62
2022-08-03T16:30:43.574Z,23.57
2022-08-03T16:33:17.076Z,23.42
2022-08-03T16:35:45.971Z,23.44
2022-08-03T16:38:18.147Z,23.50
2022-08-03T16:40:52.221Z,23.21
2022-08-03T16:43:23.016Z,23.14
2022-08-03T16:45:49.861Z,23.03
2022-08-03T16:48:17.732Z,22.95
2022-08-03T16:50:47.432Z,22.65
2022-08-03T16:53:16.248Z,22.76
2022-08-03T16:55:52.413Z,22.64
2022-08-03T16:58:34.868Z,22.64
2022-08-03T17:01:24.146Z,22.58
2022-08-03T17:04:01.621Z,22.61
2022-08-03T17:06:34.779Z,22.35
2022-08-03T17:09:04.200Z,22.33
2022-08-03T17:11:38.072Z,22.03
2022-08-03T17:14:09.459Z,22.15
2022-08-03T17:16:38.480Z,22.12
2022-08-03T17:19:07.186Z,22.10
2022-08-03T17:21:39.639Z,22.01
2022-08-03T17:24:26.297Z,21.97
2022-08-03T17:26:55.980Z,21.62
2022-08-03T17:29:25.033Z,21.69
2022-08-03T17:31:53.021Z,21.77
2022-08-03T17:34:21.017Z,21.66
2022-08-03T17:37:05.865Z,21.51
2022-08-03T17:39:56.111Z,21.23
2022-08-03T17:42:30.241Z,21.12
2022-08-03T17:45:02.043Z,21.10
2022-08-03T17:47:42.689Z,21.08
2022-08-03T17:50:24.031Z,20.98
2022-08-03T17:56:45.125Z,20.69
2022-08-03T17:59:08.996Z,20.54
2022-08-03T18:02:30.014Z,20.50
2022-08-03T18:05:16.235Z,20.27
2022-08-03T18:07:59.504Z,20.19
2022-08-03T18:10:34.091Z,20.06
2022-08-03T18:13:20.878Z,20.00
2022-08-03T18:15:54.364Z,19.94
2022-08-03T18:18:40.605Z,19.82
2022-08-03T18:23:59.471Z,19.67
2022-08-03T18:26:26.559Z,19.65
2022-08-03T18:28:54.581Z,19.54
2022-08-03T18:32:00.113Z,19.50
2022-08-03T18:34:17.262Z,19.42
2022-08-03T18:36:59.949Z,19.34
2022-08-03T18:39:28.632Z,19.12
2022-08-03T18:41:55.832Z,18.91
2022-08-03T18:44:46.577Z,19.00
2022-08-03T18:47:54.421Z,18.88
2022-08-03T18:50:34.343Z,18.96
2022-08-03T18:53:16.460Z,18.91
2022-08-03T18:56:01.287Z,18.70
2022-08-03T18:59:02.162Z,18.59
2022-08-03T19:01:58.604Z,18.48
2022-08-03T19:04:34.567Z,18.38
2022-08-03T19:07:08.319Z,18.35
2022-08-03T19:09:46.836Z,18.30
2022-08-03T19:15:13.442Z,18.14
2022-08-03T19:17:53.141Z,18.10
2022-08-03T19:20:34.925Z,18.02
2022-08-03T19:23:02.238Z,17.99
2022-08-03T19:25:35.124Z,17.98
2022-08-03T19:28:06.287Z,17.94
2022-08-03T19:30:40.671Z,17.91
2022-08-03T19:33:15.529Z,17.80
2022-08-03T19:35:54.784Z,17.72
2022-08-03T19:38:28.816Z,17.54
2022-08-03T19:41:05.769Z,17.56
2022-08-03T19:44:05.301Z,17.42
2022-08-03T19:46:43.344Z,17.39
2022-08-03T19:49:17.867Z,17.24
2022-08-03T19:51:59.027Z,17.21
2022-08-03T19:54:35.530Z,17.12
2022-08-03T19:57:03.284Z,17.21
2022-08-03T19:59:46.655Z,17.20
2022-08-03T20:02:17.946Z,17.05
2022-08-03T20:04:54.432Z,17.09
2022-08-03T20:07:22.833Z,17.02
2022-08-03T20:09:56.172Z,17.04
2022-08-03T20:12:27.662Z,16.79
2022-08-03T20:14:59.097Z,16.81
2022-08-03T20:17:53.949Z,16.60
2022-08-03T20:20:19.512Z,16.68
2022-08-03T20:22:52.869Z,16.64
2022-08-03T20:25:38.720Z,16.31
2022-08-03T20:28:15.296Z,16.45
2022-08-03T20:30:47.514Z,16.55
2022-08-03T20:33:18.682Z,16.49
2022-08-03T20:35:48.860Z,16.58
2022-08-03T20:38:17.643Z,16.51
2022-08-03T20:40:46.493Z,16.39
2022-08-03T20:43:15.893Z,16.32
2022-08-03T20:45:59.850Z,16.40
2022-08-03T20:48:30.438Z,16.37
2022-08-03T20:50:57.430Z,16.30
2022-08-03T20:54:00.466Z,16.27
2022-08-03T20:56:12.427Z,16.39
2022-08-03T20:58:42.546Z,16.34
2022-08-03T21:01:27.543Z,16.27
2022-08-03T21:04:07.066Z,16.21
2022-08-03T21:06:42.909Z,15.99
2022-08-03T21:09:21.363Z,16.01
2022-08-03T21:11:51.362Z,16.02
2022-08-03T21:12:55.594Z,20.88
2022-08-03T21:12:57.780Z,19.73
2022-08-03T21:13:08.291Z,18.22
2022-08-03T21:14:57.527Z,15.93
2022-08-03T21:17:40.421Z,15.93
2022-08-03T21:20:10.981Z,15.92
2022-08-03T21:22:39.816Z,15.92
2022-08-03T21:25:09.450Z,15.78
2022-08-03T21:27:37.006Z,15.78
2022-08-03T21:30:08.063Z,15.71
2022-08-03T21:32:35.055Z,15.74
2022-08-03T21:35:02.390Z,15.63
2022-08-03T21:37:29.283Z,15.66
2022-08-03T21:39:56.804Z,15.65
2022-08-03T21:42:24.100Z,15.69
2022-08-03T21:44:52.390Z,15.63
2022-08-03T21:47:22.421Z,15.67
2022-08-03T21:50:08.251Z,15.71
2022-08-03T21:52:45.575Z,15.65
2022-08-03T21:55:20.535Z,15.45
2022-08-03T21:57:56.645Z,15.41
2022-08-03T22:00:23.632Z,15.34
2022-08-03T22:02:57.343Z,15.25
2022-08-03T22:05:43.051Z,15.28
2022-08-03T22:08:13.597Z,15.28
2022-08-03T22:10:45.699Z,15.32
2022-08-03T22:13:43.049Z,15.33
2022-08-03T22:16:05.549Z,15.26
2022-08-03T22:18:35.762Z,15.15
2022-08-03T22:21:03.751Z,14.93
2022-08-03T22:23:31.796Z,15.14
2022-08-03T22:26:03.501Z,15.33
2022-08-03T22:28:31.034Z,15.45
2022-08-03T22:30:59.393Z,15.44
2022-08-03T22:33:48.824Z,15.40
2022-08-03T22:36:19.098Z,15.36
2022-08-03T22:38:54.053Z,15.19
2022-08-03T22:41:22.229Z,14.90
2022-08-03T22:43:49.780Z,14.94
2022-08-03T22:46:21.405Z,14.85
2022-08-03T22:48:48.828Z,14.97
2022-08-03T22:51:15.992Z,14.92
2022-08-03T22:53:45.155Z,15.00
2022-08-03T22:56:12.670Z,15.00
2022-08-03T22:58:39.359Z,15.00
2022-08-03T23:01:09.812Z,14.95
2022-08-03T23:04:00.204Z,14.97
2022-08-03T23:06:36.450Z,15.01
2022-08-03T23:09:11.213Z,14.83
2022-08-03T23:11:43.053Z,14.84
2022-08-03T23:14:15.492Z,14.67
2022-08-03T23:16:45.273Z,14.69
2022-08-03T23:19:16.789Z,14.77
2022-08-03T23:22:02.469Z,14.80
2022-08-03T23:24:30.288Z,14.84
2022-08-03T23:26:58.244Z,14.78
2022-08-03T23:29:28.005Z,14.81
2022-08-03T23:31:57.533Z,14.79
2022-08-03T23:34:43.383Z,14.57
2022-08-03T23:37:16.703Z,14.66
2022-08-03T23:39:48.482Z,14.60
2022-08-03T23:42:18.863Z,14.55
2022-08-03T23:44:46.334Z,14.52
2022-08-03T23:47:14.067Z,14.45
2022-08-03T23:49:40.726Z,14.29
2022-08-03T23:52:39.051Z,14.28
2022-08-03T23:55:23.750Z,14.24
2022-08-03T23:58:45.129Z,14.30
